sensor_id;sensor_type;location;lat;lon;timestamp;P1;durP1;ratioP1;P2;durP2;ratioP2
21334;SDS011;69435;52.670;13.544;2023-07-30T00:00:09;5.03;;;4.63;;
21334;SDS011;69435;52.670;13.544;2023-07-30T00:02:56;5.60;;;5.10;;
21334;SDS011;69435;52.670;13.544;2023-07-30T00:05:42;6.73;;;5.00;;
21334;SDS011;69435;52.670;13.544;2023-07-30T00:08:28;6.60;;;5.37;;
21334;SDS011;69435;52.670;13.544;2023-07-30T00:11:14;6.87;;;5.20;;
21334;SDS011;69435;52.670;13.544;2023-07-30T00:14:00;7.80;;;4.90;;
21334;SDS011;69435;52.670;13.544;2023-07-30T00:16:46;5.30;;;4.90;;
21334;SDS011;69435;52.670;13.544;2023-07-30T00:19:32;6.17;;;5.30;;
21334;SDS011;69435;52.670;13.544;2023-07-30T00:22:19;8.63;;;5.10;;
21334;SDS011;69435;52.670;13.544;2023-07-30T00:25:05;5.53;;;5.03;;
21334;SDS011;69435;52.670;13.544;2023-07-30T00:27:51;5.07;;;4.67;;
21334;SDS011;69435;52.670;13.544;2023-07-30T00:30:38;5.40;;;5.00;;
21334;SDS011;69435;52.670;13.544;2023-07-30T00:33:24;4.77;;;4.37;;
21334;SDS011;69435;52.670;13.544;2023-07-30T00:36:10;6.53;;;4.47;;
21334;SDS011;69435;52.670;13.544;2023-07-30T00:38:56;4.57;;;4.17;;
21334;SDS011;69435;52.670;13.544;2023-07-30T00:41:42;4.50;;;4.20;;
21334;SDS011;69435;52.670;13.544;2023-07-30T00:44:28;4.27;;;3.97;;
21334;SDS011;69435;52.670;13.544;2023-07-30T00:47:14;8.07;;;4.40;;
21334;SDS011;69435;52.670;13.544;2023-07-30T00:50:02;4.50;;;4.20;;
21334;SDS011;69435;52.670;13.544;2023-07-30T00:52:48;3.47;;;3.27;;
21334;SDS011;69435;52.670;13.544;2023-07-30T00:55:35;4.03;;;3.73;;
21334;SDS011;69435;52.670;13.544;2023-07-30T00:58:22;5.07;;;4.07;;
21334;SDS011;69435;52.670;13.544;2023-07-30T01:01:09;4.30;;;4.00;;
21334;SDS011;69435;52.670;13.544;2023-07-30T01:03:56;4.00;;;3.70;;
21334;SDS011;69435;52.670;13.544;2023-07-30T01:06:42;3.80;;;3.50;;
21334;SDS011;69435;52.670;13.544;2023-07-30T01:09:29;3.90;;;3.60;;
21334;SDS011;69435;52.670;13.544;2023-07-30T01:12:15;4.83;;;4.03;;
21334;SDS011;69435;52.670;13.544;2023-07-30T01:15:01;3.90;;;3.63;;
21334;SDS011;69435;52.670;13.544;2023-07-30T01:17:48;4.07;;;3.67;;
21334;SDS011;69435;52.670;13.544;2023-07-30T01:20:34;3.47;;;3.27;;
21334;SDS011;69435;52.670;13.544;2023-07-30T01:23:21;3.50;;;3.30;;
21334;SDS011;69435;52.670;13.544;2023-07-30T01:26:10;7.53;;;4.00;;
21334;SDS011;69435;52.670;13.544;2023-07-30T01:29:09;4.30;;;4.00;;
21334;SDS011;69435;52.670;13.544;2023-07-30T01:32:26;3.50;;;3.30;;
21334;SDS011;69435;52.670;13.544;2023-07-30T01:35:14;3.77;;;3.57;;
21334;SDS011;69435;52.670;13.544;2023-07-30T01:38:01;3.97;;;3.67;;
21334;SDS011;69435;52.670;13.544;2023-07-30T01:40:50;3.67;;;3.37;;
21334;SDS011;69435;52.670;13.544;2023-07-30T01:43:36;5.37;;;3.43;;
21334;SDS011;69435;52.670;13.544;2023-07-30T01:46:22;4.13;;;3.83;;
21334;SDS011;69435;52.670;13.544;2023-07-30T01:49:08;4.13;;;3.83;;
21334;SDS011;69435;52.670;13.544;2023-07-30T01:51:54;3.80;;;3.50;;
21334;SDS011;69435;52.670;13.544;2023-07-30T01:54:40;4.67;;;4.30;;
21334;SDS011;69435;52.670;13.544;2023-07-30T01:57:27;6.23;;;4.00;;
21334;SDS011;69435;52.670;13.544;2023-07-30T02:00:13;4.23;;;3.70;;
21334;SDS011;69435;52.670;13.544;2023-07-30T02:02:59;5.83;;;3.67;;
21334;SDS011;69435;52.670;13.544;2023-07-30T02:05:45;4.20;;;3.80;;
21334;SDS011;69435;52.670;13.544;2023-07-30T02:08:32;4.93;;;4.10;;
21334;SDS011;69435;52.670;13.544;2023-07-30T02:11:18;4.50;;;3.50;;
21334;SDS011;69435;52.670;13.544;2023-07-30T02:14:04;4.67;;;4.33;;
21334;SDS011;69435;52.670;13.544;2023-07-30T02:16:49;4.40;;;4.03;;
21334;SDS011;69435;52.670;13.544;2023-07-30T02:19:35;3.90;;;3.60;;
21334;SDS011;69435;52.670;13.544;2023-07-30T02:22:21;6.50;;;3.90;;
21334;SDS011;69435;52.670;13.544;2023-07-30T02:25:07;4.30;;;3.93;;
21334;SDS011;69435;52.670;13.544;2023-07-30T02:27:53;4.73;;;4.43;;
21334;SDS011;69435;52.670;13.544;2023-07-30T02:30:39;4.37;;;3.97;;
21334;SDS011;69435;52.670;13.544;2023-07-30T02:33:26;4.03;;;3.73;;
21334;SDS011;69435;52.670;13.544;2023-07-30T02:36:12;5.10;;;3.90;;
21334;SDS011;69435;52.670;13.544;2023-07-30T02:38:57;4.07;;;3.77;;
21334;SDS011;69435;52.670;13.544;2023-07-30T02:41:43;5.23;;;3.67;;
21334;SDS011;69435;52.670;13.544;2023-07-30T02:44:29;3.67;;;3.47;;
21334;SDS011;69435;52.670;13.544;2023-07-30T02:47:15;3.77;;;3.47;;
21334;SDS011;69435;52.670;13.544;2023-07-30T02:50:02;4.13;;;3.83;;
21334;SDS011;69435;52.670;13.544;2023-07-30T02:52:50;4.73;;;4.33;;
21334;SDS011;69435;52.670;13.544;2023-07-30T02:55:35;3.93;;;3.63;;
21334;SDS011;69435;52.670;13.544;2023-07-30T02:58:21;6.10;;;3.67;;
21334;SDS011;69435;52.670;13.544;2023-07-30T03:01:07;4.90;;;4.50;;
21334;SDS011;69435;52.670;13.544;2023-07-30T03:03:54;4.53;;;4.13;;
21334;SDS011;69435;52.670;13.544;2023-07-30T03:06:40;4.40;;;4.10;;
21334;SDS011;69435;52.670;13.544;2023-07-30T03:09:26;6.30;;;4.27;;
21334;SDS011;69435;52.670;13.544;2023-07-30T03:12:13;4.93;;;4.43;;
21334;SDS011;69435;52.670;13.544;2023-07-30T03:14:59;5.13;;;4.70;;
21334;SDS011;69435;52.670;13.544;2023-07-30T03:17:45;4.77;;;4.40;;
21334;SDS011;69435;52.670;13.544;2023-07-30T03:20:31;4.87;;;4.50;;
21334;SDS011;69435;52.670;13.544;2023-07-30T03:23:17;4.60;;;4.17;;
21334;SDS011;69435;52.670;13.544;2023-07-30T03:26:03;4.60;;;4.30;;
21334;SDS011;69435;52.670;13.544;2023-07-30T03:28:49;6.40;;;4.70;;
21334;SDS011;69435;52.670;13.544;2023-07-30T03:31:35;4.77;;;4.37;;
21334;SDS011;69435;52.670;13.544;2023-07-30T03:34:21;6.43;;;4.47;;
21334;SDS011;69435;52.670;13.544;2023-07-30T03:37:07;6.37;;;4.90;;
21334;SDS011;69435;52.670;13.544;2023-07-30T03:39:53;5.00;;;4.60;;
21334;SDS011;69435;52.670;13.544;2023-07-30T03:42:39;4.73;;;4.33;;
21334;SDS011;69435;52.670;13.544;2023-07-30T03:45:25;4.47;;;4.17;;
21334;SDS011;69435;52.670;13.544;2023-07-30T03:48:11;5.33;;;4.90;;
21334;SDS011;69435;52.670;13.544;2023-07-30T03:50:57;4.53;;;4.17;;
21334;SDS011;69435;52.670;13.544;2023-07-30T03:53:43;4.67;;;4.37;;
21334;SDS011;69435;52.670;13.544;2023-07-30T03:56:29;4.60;;;4.30;;
21334;SDS011;69435;52.670;13.544;2023-07-30T03:59:15;8.17;;;4.77;;
21334;SDS011;69435;52.670;13.544;2023-07-30T04:02:01;4.80;;;4.47;;
21334;SDS011;69435;52.670;13.544;2023-07-30T04:04:48;4.60;;;4.20;;
21334;SDS011;69435;52.670;13.544;2023-07-30T04:07:35;4.80;;;4.50;;
21334;SDS011;69435;52.670;13.544;2023-07-30T04:10:21;4.63;;;4.33;;
21334;SDS011;69435;52.670;13.544;2023-07-30T04:13:07;5.43;;;5.03;;
21334;SDS011;69435;52.670;13.544;2023-07-30T04:15:53;5.53;;;5.03;;
21334;SDS011;69435;52.670;13.544;2023-07-30T04:18:39;5.90;;;5.40;;
21334;SDS011;69435;52.670;13.544;2023-07-30T04:21:25;5.83;;;5.33;;
21334;SDS011;69435;52.670;13.544;2023-07-30T04:24:11;6.37;;;5.83;;
21334;SDS011;69435;52.670;13.544;2023-07-30T04:26:57;7.23;;;6.63;;
21334;SDS011;69435;52.670;13.544;2023-07-30T04:29:43;7.60;;;6.63;;
21334;SDS011;69435;52.670;13.544;2023-07-30T04:32:29;7.93;;;6.67;;
21334;SDS011;69435;52.670;13.544;2023-07-30T04:35:15;8.20;;;6.23;;
21334;SDS011;69435;52.670;13.544;2023-07-30T04:38:01;7.87;;;7.17;;
21334;SDS011;69435;52.670;13.544;2023-07-30T04:40:47;8.20;;;7.33;;
21334;SDS011;69435;52.670;13.544;2023-07-30T04:43:33;8.80;;;7.90;;
21334;SDS011;69435;52.670;13.544;2023-07-30T04:46:19;7.27;;;6.57;;
21334;SDS011;69435;52.670;13.544;2023-07-30T04:49:05;7.17;;;6.47;;
21334;SDS011;69435;52.670;13.544;2023-07-30T04:51:51;8.00;;;7.20;;
21334;SDS011;69435;52.670;13.544;2023-07-30T04:54:37;8.10;;;7.40;;
21334;SDS011;69435;52.670;13.544;2023-07-30T04:57:23;11.60;;;7.23;;
21334;SDS011;69435;52.670;13.544;2023-07-30T05:00:09;8.60;;;7.70;;
21334;SDS011;69435;52.670;13.544;2023-07-30T05:02:56;9.30;;;8.37;;
21334;SDS011;69435;52.670;13.544;2023-07-30T05:05:42;8.33;;;7.63;;
21334;SDS011;69435;52.670;13.544;2023-07-30T05:08:28;10.37;;;8.03;;
21334;SDS011;69435;52.670;13.544;2023-07-30T05:11:14;8.50;;;7.80;;
21334;SDS011;69435;52.670;13.544;2023-07-30T05:14:00;9.60;;;8.83;;
21334;SDS011;69435;52.670;13.544;2023-07-30T05:16:46;9.23;;;8.33;;
21334;SDS011;69435;52.670;13.544;2023-07-30T05:19:32;9.70;;;8.70;;
21334;SDS011;69435;52.670;13.544;2023-07-30T05:22:18;9.53;;;8.73;;
21334;SDS011;69435;52.670;13.544;2023-07-30T05:25:04;9.73;;;8.70;;
21334;SDS011;69435;52.670;13.544;2023-07-30T05:27:51;9.37;;;8.57;;
21334;SDS011;69435;52.670;13.544;2023-07-30T05:30:37;11.40;;;9.10;;
21334;SDS011;69435;52.670;13.544;2023-07-30T05:33:23;9.50;;;8.70;;
21334;SDS011;69435;52.670;13.544;2023-07-30T05:36:09;9.63;;;8.27;;
21334;SDS011;69435;52.670;13.544;2023-07-30T05:38:55;9.00;;;8.40;;
21334;SDS011;69435;52.670;13.544;2023-07-30T05:41:41;7.70;;;7.10;;
21334;SDS011;69435;52.670;13.544;2023-07-30T05:44:27;7.17;;;6.67;;
21334;SDS011;69435;52.670;13.544;2023-07-30T05:47:13;6.37;;;5.87;;
21334;SDS011;69435;52.670;13.544;2023-07-30T05:49:59;6.00;;;5.60;;
21334;SDS011;69435;52.670;13.544;2023-07-30T05:52:47;5.33;;;4.93;;
21334;SDS011;69435;52.670;13.544;2023-07-30T05:55:33;4.97;;;4.60;;
21334;SDS011;69435;52.670;13.544;2023-07-30T05:58:19;5.00;;;4.70;;
21334;SDS011;69435;52.670;13.544;2023-07-30T06:01:04;4.07;;;3.83;;
21334;SDS011;69435;52.670;13.544;2023-07-30T06:03:51;4.10;;;3.70;;
21334;SDS011;69435;52.670;13.544;2023-07-30T06:06:37;3.90;;;3.70;;
21334;SDS011;69435;52.670;13.544;2023-07-30T06:09:22;4.00;;;3.70;;
21334;SDS011;69435;52.670;13.544;2023-07-30T06:12:08;4.03;;;3.60;;
21334;SDS011;69435;52.670;13.544;2023-07-30T06:14:54;3.50;;;3.30;;
21334;SDS011;69435;52.670;13.544;2023-07-30T06:17:40;3.50;;;3.30;;
21334;SDS011;69435;52.670;13.544;2023-07-30T06:20:26;3.37;;;3.17;;
21334;SDS011;69435;52.670;13.544;2023-07-30T06:23:12;3.60;;;3.40;;
21334;SDS011;69435;52.670;13.544;2023-07-30T06:25:58;3.57;;;3.37;;
21334;SDS011;69435;52.670;13.544;2023-07-30T06:28:44;3.03;;;2.87;;
21334;SDS011;69435;52.670;13.544;2023-07-30T06:31:30;3.03;;;2.80;;
21334;SDS011;69435;52.670;13.544;2023-07-30T06:34:17;2.90;;;2.80;;
21334;SDS011;69435;52.670;13.544;2023-07-30T06:37:04;3.00;;;2.80;;
21334;SDS011;69435;52.670;13.544;2023-07-30T06:39:50;2.97;;;2.77;;
21334;SDS011;69435;52.670;13.544;2023-07-30T06:42:35;2.80;;;2.67;;
21334;SDS011;69435;52.670;13.544;2023-07-30T06:45:21;3.40;;;2.30;;
21334;SDS011;69435;52.670;13.544;2023-07-30T06:48:07;2.63;;;2.43;;
21334;SDS011;69435;52.670;13.544;2023-07-30T06:50:53;2.80;;;2.60;;
21334;SDS011;69435;52.670;13.544;2023-07-30T06:53:39;2.67;;;2.43;;
21334;SDS011;69435;52.670;13.544;2023-07-30T06:56:25;2.87;;;2.63;;
21334;SDS011;69435;52.670;13.544;2023-07-30T06:59:11;2.53;;;2.43;;
21334;SDS011;69435;52.670;13.544;2023-07-30T07:01:57;2.53;;;2.43;;
21334;SDS011;69435;52.670;13.544;2023-07-30T07:04:44;2.20;;;2.10;;
21334;SDS011;69435;52.670;13.544;2023-07-30T07:07:30;2.43;;;2.23;;
21334;SDS011;69435;52.670;13.544;2023-07-30T07:10:16;2.27;;;2.17;;
21334;SDS011;69435;52.670;13.544;2023-07-30T07:13:02;2.57;;;2.37;;
21334;SDS011;69435;52.670;13.544;2023-07-30T07:15:48;2.70;;;2.50;;
21334;SDS011;69435;52.670;13.544;2023-07-30T07:18:34;2.20;;;2.10;;
21334;SDS011;69435;52.670;13.544;2023-07-30T07:21:20;2.37;;;2.27;;
21334;SDS011;69435;52.670;13.544;2023-07-30T07:24:06;2.40;;;2.30;;
21334;SDS011;69435;52.670;13.544;2023-07-30T07:26:52;2.03;;;1.92;;
21334;SDS011;69435;52.670;13.544;2023-07-30T07:29:38;2.08;;;1.92;;
21334;SDS011;69435;52.670;13.544;2023-07-30T07:32:24;4.50;;;1.95;;
21334;SDS011;69435;52.670;13.544;2023-07-30T07:35:10;1.88;;;1.77;;
21334;SDS011;69435;52.670;13.544;2023-07-30T07:37:56;1.73;;;1.70;;
21334;SDS011;69435;52.670;13.544;2023-07-30T07:40:43;1.80;;;1.70;;
21334;SDS011;69435;52.670;13.544;2023-07-30T07:43:29;2.00;;;1.90;;
21334;SDS011;69435;52.670;13.544;2023-07-30T07:46:15;1.83;;;1.73;;
21334;SDS011;69435;52.670;13.544;2023-07-30T07:49:01;1.55;;;1.52;;
21334;SDS011;69435;52.670;13.544;2023-07-30T07:51:47;1.63;;;1.52;;
21334;SDS011;69435;52.670;13.544;2023-07-30T07:54:33;1.90;;;1.80;;
21334;SDS011;69435;52.670;13.544;2023-07-30T07:57:20;2.10;;;2.00;;
21334;SDS011;69435;52.670;13.544;2023-07-30T08:00:06;2.00;;;1.90;;
21334;SDS011;69435;52.670;13.544;2023-07-30T08:02:53;2.28;;;2.10;;
21334;SDS011;69435;52.670;13.544;2023-07-30T08:05:39;2.13;;;2.03;;
21334;SDS011;69435;52.670;13.544;2023-07-30T08:08:25;1.85;;;1.67;;
21334;SDS011;69435;52.670;13.544;2023-07-30T08:11:12;2.10;;;2.00;;
21334;SDS011;69435;52.670;13.544;2023-07-30T08:13:58;2.30;;;1.75;;
21334;SDS011;69435;52.670;13.544;2023-07-30T08:16:44;2.55;;;2.35;;
21334;SDS011;69435;52.670;13.544;2023-07-30T08:19:30;2.65;;;2.05;;
21334;SDS011;69435;52.670;13.544;2023-07-30T08:22:15;2.47;;;2.20;;
21334;SDS011;69435;52.670;13.544;2023-07-30T08:25:02;2.15;;;2.05;;
21334;SDS011;69435;52.670;13.544;2023-07-30T08:27:49;3.10;;;2.00;;
21334;SDS011;69435;52.670;13.544;2023-07-30T08:30:35;2.20;;;2.10;;
21334;SDS011;69435;52.670;13.544;2023-07-30T08:33:21;2.50;;;2.40;;
21334;SDS011;69435;52.670;13.544;2023-07-30T08:36:06;3.45;;;3.00;;
21334;SDS011;69435;52.670;13.544;2023-07-30T08:38:52;2.20;;;2.10;;
21334;SDS011;69435;52.670;13.544;2023-07-30T08:41:38;2.53;;;2.10;;
21334;SDS011;69435;52.670;13.544;2023-07-30T08:44:24;2.20;;;2.00;;
21334;SDS011;69435;52.670;13.544;2023-07-30T08:47:11;2.05;;;1.95;;
21334;SDS011;69435;52.670;13.544;2023-07-30T08:49:57;2.28;;;2.00;;
21334;SDS011;69435;52.670;13.544;2023-07-30T08:52:43;2.40;;;2.13;;
21334;SDS011;69435;52.670;13.544;2023-07-30T08:55:29;1.90;;;1.80;;
21334;SDS011;69435;52.670;13.544;2023-07-30T08:58:19;2.97;;;2.00;;
21334;SDS011;69435;52.670;13.544;2023-07-30T09:01:08;3.47;;;2.00;;
21334;SDS011;69435;52.670;13.544;2023-07-30T09:03:57;2.20;;;1.73;;
21334;SDS011;69435;52.670;13.544;2023-07-30T09:06:48;2.30;;;2.10;;
21334;SDS011;69435;52.670;13.544;2023-07-30T09:09:35;2.10;;;1.92;;
21334;SDS011;69435;52.670;13.544;2023-07-30T09:12:29;3.17;;;1.98;;
21334;SDS011;69435;52.670;13.544;2023-07-30T09:15:17;1.98;;;1.83;;
21334;SDS011;69435;52.670;13.544;2023-07-30T09:18:06;1.90;;;1.80;;
21334;SDS011;69435;52.670;13.544;2023-07-30T09:20:53;1.80;;;1.70;;
21334;SDS011;69435;52.670;13.544;2023-07-30T09:23:43;3.28;;;1.70;;
21334;SDS011;69435;52.670;13.544;2023-07-30T09:26:44;2.05;;;1.77;;
21334;SDS011;69435;52.670;13.544;2023-07-30T09:29:31;1.75;;;1.65;;
21334;SDS011;69435;52.670;13.544;2023-07-30T09:32:18;2.03;;;1.92;;
21334;SDS011;69435;52.670;13.544;2023-07-30T09:35:05;2.05;;;1.88;;
21334;SDS011;69435;52.670;13.544;2023-07-30T09:37:59;2.38;;;2.03;;
21334;SDS011;69435;52.670;13.544;2023-07-30T09:40:48;2.00;;;1.90;;
21334;SDS011;69435;52.670;13.544;2023-07-30T09:43:35;2.10;;;1.90;;
21334;SDS011;69435;52.670;13.544;2023-07-30T09:46:21;2.03;;;1.88;;
21334;SDS011;69435;52.670;13.544;2023-07-30T09:49:08;2.13;;;1.70;;
21334;SDS011;69435;52.670;13.544;2023-07-30T09:51:54;2.65;;;2.38;;
21334;SDS011;69435;52.670;13.544;2023-07-30T09:54:40;2.55;;;1.70;;
21334;SDS011;69435;52.670;13.544;2023-07-30T09:57:26;2.42;;;2.22;;
21334;SDS011;69435;52.670;13.544;2023-07-30T10:00:12;1.98;;;1.88;;
21334;SDS011;69435;52.670;13.544;2023-07-30T10:02:59;1.98;;;1.88;;
21334;SDS011;69435;52.670;13.544;2023-07-30T10:05:48;1.85;;;1.75;;
21334;SDS011;69435;52.670;13.544;2023-07-30T10:08:37;2.05;;;1.80;;
21334;SDS011;69435;52.670;13.544;2023-07-30T10:11:26;1.77;;;1.67;;
21334;SDS011;69435;52.670;13.544;2023-07-30T10:14:14;2.35;;;1.40;;
21334;SDS011;69435;52.670;13.544;2023-07-30T10:17:04;2.03;;;1.92;;
21334;SDS011;69435;52.670;13.544;2023-07-30T10:19:50;1.90;;;1.80;;
21334;SDS011;69435;52.670;13.544;2023-07-30T10:22:36;2.35;;;2.10;;
21334;SDS011;69435;52.670;13.544;2023-07-30T10:25:28;1.98;;;1.88;;
21334;SDS011;69435;52.670;13.544;2023-07-30T10:31:16;1.83;;;1.73;;
21334;SDS011;69435;52.670;13.544;2023-07-30T10:34:02;2.20;;;2.00;;
21334;SDS011;69435;52.670;13.544;2023-07-30T10:36:56;2.10;;;2.00;;
21334;SDS011;69435;52.670;13.544;2023-07-30T10:39:47;2.45;;;2.25;;
21334;SDS011;69435;52.670;13.544;2023-07-30T10:42:34;2.17;;;1.90;;
21334;SDS011;69435;52.670;13.544;2023-07-30T10:45:25;1.80;;;1.70;;
21334;SDS011;69435;52.670;13.544;2023-07-30T10:48:11;2.17;;;2.00;;
21334;SDS011;69435;52.670;13.544;2023-07-30T10:50:57;1.85;;;1.70;;
21334;SDS011;69435;52.670;13.544;2023-07-30T10:53:48;1.90;;;1.80;;
21334;SDS011;69435;52.670;13.544;2023-07-30T10:56:36;2.13;;;1.90;;
21334;SDS011;69435;52.670;13.544;2023-07-30T10:59:23;2.55;;;1.80;;
21334;SDS011;69435;52.670;13.544;2023-07-30T11:02:09;2.30;;;2.10;;
21334;SDS011;69435;52.670;13.544;2023-07-30T11:04:57;1.88;;;1.70;;
21334;SDS011;69435;52.670;13.544;2023-07-30T11:07:50;2.63;;;1.90;;
21334;SDS011;69435;52.670;13.544;2023-07-30T11:10:43;1.65;;;1.55;;
21334;SDS011;69435;52.670;13.544;2023-07-30T11:13:35;1.85;;;1.73;;
21334;SDS011;69435;52.670;13.544;2023-07-30T11:16:23;2.35;;;2.00;;
21334;SDS011;69435;52.670;13.544;2023-07-30T11:19:10;2.17;;;1.98;;
21334;SDS011;69435;52.670;13.544;2023-07-30T11:21:57;2.40;;;2.20;;
21334;SDS011;69435;52.670;13.544;2023-07-30T11:24:43;3.05;;;2.28;;
21334;SDS011;69435;52.670;13.544;2023-07-30T11:27:29;2.88;;;2.30;;
21334;SDS011;69435;52.670;13.544;2023-07-30T11:30:30;2.13;;;1.98;;
21334;SDS011;69435;52.670;13.544;2023-07-30T11:33:17;1.85;;;1.75;;
21334;SDS011;69435;52.670;13.544;2023-07-30T11:36:04;2.08;;;1.85;;
21334;SDS011;69435;52.670;13.544;2023-07-30T11:38:53;2.00;;;1.90;;
21334;SDS011;69435;52.670;13.544;2023-07-30T11:41:39;2.70;;;2.15;;
21334;SDS011;69435;52.670;13.544;2023-07-30T11:44:29;2.97;;;2.05;;
21334;SDS011;69435;52.670;13.544;2023-07-30T11:47:21;3.13;;;2.22;;
21334;SDS011;69435;52.670;13.544;2023-07-30T11:50:07;2.45;;;2.25;;
21334;SDS011;69435;52.670;13.544;2023-07-30T11:52:54;2.45;;;2.17;;
21334;SDS011;69435;52.670;13.544;2023-07-30T11:55:43;2.72;;;2.17;;
21334;SDS011;69435;52.670;13.544;2023-07-30T11:58:30;2.83;;;1.80;;
21334;SDS011;69435;52.670;13.544;2023-07-30T12:01:16;2.28;;;1.92;;
21334;SDS011;69435;52.670;13.544;2023-07-30T12:04:04;2.22;;;2.05;;
21334;SDS011;69435;52.670;13.544;2023-07-30T12:06:52;3.83;;;1.88;;
21334;SDS011;69435;52.670;13.544;2023-07-30T12:09:38;2.35;;;1.52;;
21334;SDS011;69435;52.670;13.544;2023-07-30T12:12:25;2.00;;;1.77;;
21334;SDS011;69435;52.670;13.544;2023-07-30T12:15:13;1.77;;;1.67;;
21334;SDS011;69435;52.670;13.544;2023-07-30T12:17:59;4.47;;;1.45;;
21334;SDS011;69435;52.670;13.544;2023-07-30T12:20:45;1.75;;;1.52;;
21334;SDS011;69435;52.670;13.544;2023-07-30T12:23:34;1.80;;;1.70;;
21334;SDS011;69435;52.670;13.544;2023-07-30T12:26:20;2.83;;;1.92;;
21334;SDS011;69435;52.670;13.544;2023-07-30T12:29:06;2.95;;;1.80;;
21334;SDS011;69435;52.670;13.544;2023-07-30T12:31:52;2.88;;;2.05;;
21334;SDS011;69435;52.670;13.544;2023-07-30T12:34:38;3.80;;;1.73;;
21334;SDS011;69435;52.670;13.544;2023-07-30T12:37:24;1.95;;;1.65;;
21334;SDS011;69435;52.670;13.544;2023-07-30T12:40:11;2.70;;;1.63;;
21334;SDS011;69435;52.670;13.544;2023-07-30T12:42:57;2.88;;;1.58;;
21334;SDS011;69435;52.670;13.544;2023-07-30T12:45:43;2.22;;;2.13;;
21334;SDS011;69435;52.670;13.544;2023-07-30T12:48:29;1.65;;;1.50;;
21334;SDS011;69435;52.670;13.544;2023-07-30T12:51:15;2.10;;;1.90;;
21334;SDS011;69435;52.670;13.544;2023-07-30T12:54:01;1.63;;;1.52;;
21334;SDS011;69435;52.670;13.544;2023-07-30T12:56:48;2.38;;;2.05;;
21334;SDS011;69435;52.670;13.544;2023-07-30T12:59:33;2.70;;;2.10;;
21334;SDS011;69435;52.670;13.544;2023-07-30T13:02:21;2.10;;;1.80;;
21334;SDS011;69435;52.670;13.544;2023-07-30T13:05:07;1.60;;;1.48;;
21334;SDS011;69435;52.670;13.544;2023-07-30T13:07:53;1.90;;;1.80;;
21334;SDS011;69435;52.670;13.544;2023-07-30T13:10:39;1.63;;;1.52;;
21334;SDS011;69435;52.670;13.544;2023-07-30T13:13:26;4.03;;;1.70;;
21334;SDS011;69435;52.670;13.544;2023-07-30T13:16:12;3.00;;;1.90;;
21334;SDS011;69435;52.670;13.544;2023-07-30T13:18:59;1.45;;;1.35;;
21334;SDS011;69435;52.670;13.544;2023-07-30T13:21:45;1.52;;;1.42;;
21334;SDS011;69435;52.670;13.544;2023-07-30T13:24:30;2.35;;;1.80;;
21334;SDS011;69435;52.670;13.544;2023-07-30T13:27:17;2.40;;;1.88;;
21334;SDS011;69435;52.670;13.544;2023-07-30T13:30:03;1.88;;;1.77;;
21334;SDS011;69435;52.670;13.544;2023-07-30T13:32:50;2.72;;;1.88;;
21334;SDS011;69435;52.670;13.544;2023-07-30T13:35:36;3.50;;;2.03;;
21334;SDS011;69435;52.670;13.544;2023-07-30T13:38:22;2.15;;;1.98;;
21334;SDS011;69435;52.670;13.544;2023-07-30T13:41:10;2.00;;;1.90;;
21334;SDS011;69435;52.670;13.544;2023-07-30T13:43:56;1.85;;;1.75;;
21334;SDS011;69435;52.670;13.544;2023-07-30T13:46:42;2.00;;;1.90;;
21334;SDS011;69435;52.670;13.544;2023-07-30T13:49:28;1.88;;;1.77;;
21334;SDS011;69435;52.670;13.544;2023-07-30T13:52:14;1.90;;;1.80;;
21334;SDS011;69435;52.670;13.544;2023-07-30T13:55:00;2.13;;;1.83;;
21334;SDS011;69435;52.670;13.544;2023-07-30T13:57:46;5.55;;;2.40;;
21334;SDS011;69435;52.670;13.544;2023-07-30T14:00:32;3.75;;;2.17;;
21334;SDS011;69435;52.670;13.544;2023-07-30T14:03:18;4.55;;;2.13;;
21334;SDS011;69435;52.670;13.544;2023-07-30T14:06:05;4.22;;;1.90;;
21334;SDS011;69435;52.670;13.544;2023-07-30T14:08:51;2.00;;;1.90;;
21334;SDS011;69435;52.670;13.544;2023-07-30T14:11:37;3.47;;;2.10;;
21334;SDS011;69435;52.670;13.544;2023-07-30T14:14:23;2.45;;;1.85;;
21334;SDS011;69435;52.670;13.544;2023-07-30T14:17:09;2.05;;;1.90;;
21334;SDS011;69435;52.670;13.544;2023-07-30T14:19:55;2.00;;;1.63;;
21334;SDS011;69435;52.670;13.544;2023-07-30T14:22:41;1.80;;;1.70;;
21334;SDS011;69435;52.670;13.544;2023-07-30T14:25:27;3.10;;;1.80;;
21334;SDS011;69435;52.670;13.544;2023-07-30T14:28:13;2.33;;;1.77;;
21334;SDS011;69435;52.670;13.544;2023-07-30T14:30:59;1.83;;;1.73;;
21334;SDS011;69435;52.670;13.544;2023-07-30T14:33:45;1.83;;;1.73;;
21334;SDS011;69435;52.670;13.544;2023-07-30T14:36:31;1.77;;;1.60;;
21334;SDS011;69435;52.670;13.544;2023-07-30T14:39:17;2.35;;;1.50;;
21334;SDS011;69435;52.670;13.544;2023-07-30T14:42:03;1.55;;;1.40;;
21334;SDS011;69435;52.670;13.544;2023-07-30T14:44:50;1.60;;;1.50;;
21334;SDS011;69435;52.670;13.544;2023-07-30T14:47:36;1.38;;;1.27;;
21334;SDS011;69435;52.670;13.544;2023-07-30T14:50:22;1.23;;;1.23;;
21334;SDS011;69435;52.670;13.544;2023-07-30T14:53:08;1.20;;;1.20;;
21334;SDS011;69435;52.670;13.544;2023-07-30T14:55:54;2.20;;;1.10;;
21334;SDS011;69435;52.670;13.544;2023-07-30T14:58:41;1.20;;;1.10;;
21334;SDS011;69435;52.670;13.544;2023-07-30T15:01:29;1.35;;;1.25;;
21334;SDS011;69435;52.670;13.544;2023-07-30T15:04:16;1.40;;;1.30;;
21334;SDS011;69435;52.670;13.544;2023-07-30T15:07:02;1.17;;;1.10;;
21334;SDS011;69435;52.670;13.544;2023-07-30T15:09:49;1.88;;;1.52;;
21334;SDS011;69435;52.670;13.544;2023-07-30T15:12:37;1.60;;;1.50;;
21334;SDS011;69435;52.670;13.544;2023-07-30T15:15:23;1.25;;;1.17;;
21334;SDS011;69435;52.670;13.544;2023-07-30T15:18:09;1.23;;;1.13;;
21334;SDS011;69435;52.670;13.544;2023-07-30T15:20:56;1.38;;;1.27;;
21334;SDS011;69435;52.670;13.544;2023-07-30T15:23:43;1.10;;;1.00;;
21334;SDS011;69435;52.670;13.544;2023-07-30T15:26:31;1.37;;;1.27;;
21334;SDS011;69435;52.670;13.544;2023-07-30T15:29:16;2.07;;;1.40;;
21334;SDS011;69435;52.670;13.544;2023-07-30T15:32:04;2.80;;;1.47;;
21334;SDS011;69435;52.670;13.544;2023-07-30T15:34:50;1.20;;;1.07;;
21334;SDS011;69435;52.670;13.544;2023-07-30T15:37:37;1.33;;;1.13;;
21334;SDS011;69435;52.670;13.544;2023-07-30T15:40:23;1.43;;;1.33;;
21334;SDS011;69435;52.670;13.544;2023-07-30T15:43:09;1.63;;;1.30;;
21334;SDS011;69435;52.670;13.544;2023-07-30T15:45:57;1.73;;;1.63;;
21334;SDS011;69435;52.670;13.544;2023-07-30T15:48:47;1.60;;;1.43;;
21334;SDS011;69435;52.670;13.544;2023-07-30T15:51:33;1.83;;;1.60;;
21334;SDS011;69435;52.670;13.544;2023-07-30T15:54:30;1.97;;;1.53;;
21334;SDS011;69435;52.670;13.544;2023-07-30T15:57:20;1.50;;;1.40;;
21334;SDS011;69435;52.670;13.544;2023-07-30T16:00:06;1.97;;;1.40;;
21334;SDS011;69435;52.670;13.544;2023-07-30T16:02:54;2.70;;;1.40;;
21334;SDS011;69435;52.670;13.544;2023-07-30T16:05:46;1.30;;;1.20;;
21334;SDS011;69435;52.670;13.544;2023-07-30T16:08:34;3.80;;;1.20;;
21334;SDS011;69435;52.670;13.544;2023-07-30T16:11:21;2.47;;;1.10;;
21334;SDS011;69435;52.670;13.544;2023-07-30T16:14:08;1.40;;;1.33;;
21334;SDS011;69435;52.670;13.544;2023-07-30T16:16:54;1.50;;;1.40;;
21334;SDS011;69435;52.670;13.544;2023-07-30T16:19:40;1.60;;;1.50;;
21334;SDS011;69435;52.670;13.544;2023-07-30T16:22:26;1.33;;;1.23;;
21334;SDS011;69435;52.670;13.544;2023-07-30T16:25:12;1.80;;;1.70;;
21334;SDS011;69435;52.670;13.544;2023-07-30T16:27:58;1.53;;;1.50;;
21334;SDS011;69435;52.670;13.544;2023-07-30T16:30:45;1.83;;;1.70;;